Time;durP1;ratioP1;P1;durP2;ratioP2;P2;SDS_P1;SDS_P2;PMS_P1;PMS_P2;Temp;Humidity;BMP_temperature;BMP_pressure;BME280_temperature;BME280_humidity;BME280_pressure;Samples;Min_cycle;Max_cycle;Signal;HPM_P1;HPM_P2
2022/04/25 00:01:16;;;;;;;11.60;5.53;;;8.90;99.90;;;;;;5091456;28;20122;-62
2022/04/25 00:03:42;;;;;;;12.50;6.07;;;8.90;99.90;;;;;;5092205;28;20038;-62
2022/04/25 00:06:08;;;;;;;11.50;4.72;;;9.10;99.90;;;;;;5091481;28;20047;-62
2022/04/25 00:08:34;;;;;;;11.18;4.70;;;8.60;99.90;;;;;;5089751;28;20105;-62
2022/04/25 00:11:00;;;;;;;12.90;4.72;;;8.90;99.90;;;;;;5092438;28;20044;-62
2022/04/25 00:13:26;;;;;;;8.45;4.30;;;;;;;;;;5090673;28;20043;-62
2022/04/25 00:15:52;;;;;;;13.35;4.93;;;9.00;99.90;;;;;;5091607;28;20043;-62
2022/04/25 00:18:18;;;;;;;12.15;4.80;;;8.80;99.90;;;;;;5092385;28;20036;-62
2022/04/25 00:20:44;;;;;;;17.38;4.75;;;8.70;99.90;;;;;;5091269;28;20496;-62
2022/04/25 00:23:10;;;;;;;9.63;4.47;;;8.90;99.90;;;;;;5091363;28;20042;-62
2022/04/25 00:25:36;;;;;;;11.38;4.35;;;8.90;99.90;;;;;;5091603;28;20062;-62
2022/04/25 00:28:03;;;;;;;14.35;5.75;;;9.00;99.90;;;;;;5091233;28;20115;-62
2022/04/25 00:30:29;;;;;;;9.55;4.75;;;9.00;99.90;;;;;;5073694;28;20048;-62
2022/04/25 00:32:58;;;;;;;10.65;4.35;;;9.00;99.90;;;;;;5090726;28;20039;-62
2022/04/25 00:35:25;;;;;;;8.82;4.72;;;8.80;99.90;;;;;;5093975;28;20561;-62
2022/04/25 00:37:51;;;;;;;13.55;4.05;;;9.00;99.90;;;;;;5094756;28;20072;-62
2022/04/25 00:40:22;;;;;;;9.15;4.07;;;9.10;99.90;;;;;;5094798;28;20105;-62
2022/04/25 00:42:48;;;;;;;9.43;4.30;;;8.80;99.90;;;;;;5094888;28;20123;-62
2022/04/25 00:45:15;;;;;;;13.77;4.22;;;8.60;99.90;;;;;;5095868;28;20078;-62
2022/04/25 00:47:42;;;;;;;8.95;3.70;;;9.00;99.90;;;;;;5094256;28;20097;-62
2022/04/25 00:50:08;;;;;;;12.00;4.50;;;8.90;99.90;;;;;;5093976;28;20500;-62
2022/04/25 00:52:35;;;;;;;16.13;4.70;;;9.10;99.90;;;;;;5095318;28;20032;-62
2022/04/25 00:55:03;;;;;;;9.48;3.88;;;9.20;99.90;;;;;;5095669;28;20571;-62
2022/04/25 00:57:30;;;;;;;9.15;4.13;;;9.00;99.90;;;;;;5094752;28;20119;-62
2022/04/25 00:59:57;;;;;;;12.98;5.10;;;8.70;99.90;;;;;;5095865;28;20040;-62
2022/04/25 01:02:25;;;;;;;8.30;4.60;;;9.00;99.90;;;;;;5095365;28;20120;-62
2022/04/25 01:04:50;;;;;;;10.50;4.75;;;8.90;99.90;;;;;;5093400;28;20042;-62
2022/04/25 01:07:16;;;;;;;11.60;5.47;;;8.50;99.90;;;;;;5095196;28;20036;-62
2022/04/25 01:09:42;;;;;;;10.85;5.55;;;;;;;;;;5094955;28;20087;-62
2022/04/25 01:12:08;;;;;;;12.60;4.95;;;8.60;99.90;;;;;;5095271;28;20051;-62
2022/04/25 01:14:34;;;;;;;11.23;4.75;;;8.60;99.90;;;;;;5095011;28;20036;-62
2022/04/25 01:17:00;;;;;;;10.40;5.10;;;9.00;99.90;;;;;;5093507;28;20404;-62
2022/04/25 01:19:26;;;;;;;10.25;5.53;;;8.40;99.90;;;;;;5093949;28;20396;-62
2022/04/25 01:22:02;;;;;;;12.02;6.15;;;8.90;99.90;;;;;;5094962;28;20046;-62
2022/04/25 01:27:17;;;;;;;9.70;5.43;;;8.60;99.90;;;;;;5093805;28;20397;-62
2022/04/25 01:29:54;;;;;;;10.05;5.20;;;8.80;99.90;;;;;;5094881;28;20115;-62
2022/04/25 01:32:22;;;;;;;11.95;5.85;;;8.60;99.90;;;;;;5076193;28;20090;-62
2022/04/25 01:34:48;;;;;;;11.20;5.53;;;8.80;99.90;;;;;;5094730;28;20040;-62
2022/04/25 01:37:15;;;;;;;12.20;5.60;;;8.70;99.90;;;;;;5094894;28;20496;-62
2022/04/25 01:39:52;;;;;;;10.80;5.93;;;8.60;99.90;;;;;;5076071;28;20374;-62
2022/04/25 01:42:20;;;;;;;12.13;5.70;;;8.80;99.90;;;;;;5094556;28;20044;-62
2022/04/25 01:44:46;;;;;;;12.23;6.03;;;8.60;99.90;;;;;;5093287;28;20040;-62
2022/04/25 01:47:12;;;;;;;10.43;6.03;;;;;;;;;;5093365;28;20040;-62
2022/04/25 01:49:38;;;;;;;11.07;6.25;;;8.50;99.90;;;;;;5093535;28;20040;-62
2022/04/25 01:52:40;;;;;;;12.43;6.05;;;8.80;99.90;;;;;;5094196;28;20081;-62
2022/04/25 01:55:06;;;;;;;10.57;6.07;;;8.70;99.90;;;;;;4995988;28;20085;-62
2022/04/25 01:57:33;;;;;;;10.95;6.57;;;8.60;99.90;;;;;;5076959;28;20113;-62
2022/04/25 01:59:58;;;;;;;12.10;5.93;;;8.60;99.90;;;;;;5093684;28;20055;-62
2022/04/25 02:02:24;;;;;;;9.75;5.80;;;8.40;99.90;;;;;;5094144;28;20040;-62
2022/04/25 02:04:50;;;;;;;10.32;5.72;;;8.40;99.90;;;;;;5092940;28;20408;-62
2022/04/25 02:07:16;;;;;;;12.00;6.63;;;8.70;99.90;;;;;;5092034;28;20036;-62
2022/04/25 02:09:41;;;;;;;11.63;6.35;;;8.80;99.90;;;;;;5092532;28;20075;-62
2022/04/25 02:12:07;;;;;;;12.43;6.82;;;8.50;99.90;;;;;;5094324;28;20044;-62
2022/04/25 02:14:34;;;;;;;13.32;6.80;;;8.20;99.90;;;;;;5091645;28;20039;-62
2022/04/25 02:17:00;;;;;;;13.88;6.75;;;8.30;99.90;;;;;;5093227;28;20654;-62
2022/04/25 02:19:27;;;;;;;11.38;7.03;;;8.20;99.90;;;;;;5092624;28;20123;-62
2022/04/25 02:21:53;;;;;;;11.13;6.28;;;9.90;99.90;;;;;;5093187;28;20047;-62
2022/04/25 02:24:19;;;;;;;10.88;6.28;;;8.20;99.90;;;;;;5093502;28;20035;-62
2022/04/25 02:26:44;;;;;;;11.10;6.28;;;8.30;99.90;;;;;;5092249;28;20127;-62
2022/04/25 02:29:10;;;;;;;12.02;7.15;;;8.20;99.90;;;;;;5092023;28;20044;-62
2022/04/25 02:31:36;;;;;;;10.32;5.85;;;8.00;99.90;;;;;;5093533;28;20064;-62
2022/04/25 02:34:01;;;;;;;10.35;6.43;;;8.10;99.90;;;;;;5093916;28;20069;-62
2022/04/25 02:36:27;;;;;;;14.48;5.55;;;8.30;99.90;;;;;;5092903;28;20036;-62
2022/04/25 02:38:52;;;;;;;10.90;6.25;;;9.00;99.90;;;;;;5093428;28;20488;-62
2022/04/25 02:41:18;;;;;;;9.27;5.90;;;8.20;99.90;;;;;;5092554;28;20101;-62
2022/04/25 02:43:44;;;;;;;12.23;6.45;;;8.10;99.90;;;;;;5093587;28;20047;-62
2022/04/25 02:46:13;;;;;;;10.32;5.63;;;7.90;99.90;;;;;;5093854;28;20051;-62
2022/04/25 02:48:42;;;;;;;12.75;6.75;;;7.90;99.90;;;;;;5091154;28;20047;-62
2022/04/25 02:51:09;;;;;;;15.25;5.65;;;7.90;99.90;;;;;;5092382;28;20042;-62
2022/04/25 02:53:35;;;;;;;11.52;6.75;;;7.90;99.90;;;;;;5091696;28;20071;-62
2022/04/25 02:56:02;;;;;;;9.48;5.93;;;7.90;99.90;;;;;;5092516;28;20036;-62
2022/04/25 02:58:29;;;;;;;13.07;7.05;;;7.90;99.90;;;;;;5091144;28;20036;-62
2022/04/25 03:00:57;;;;;;;10.63;6.07;;;7.90;99.90;;;;;;5093520;28;20040;-62
2022/04/25 03:03:24;;;;;;;10.90;6.28;;;8.00;99.90;;;;;;5091025;28;20039;-62
2022/04/25 03:05:51;;;;;;;10.63;5.85;;;8.00;99.90;;;;;;5093130;28;20047;-62
2022/04/25 03:08:19;;;;;;;12.15;7.47;;;8.00;99.90;;;;;;5091196;28;20051;-62
2022/04/25 03:10:45;;;;;;;9.43;5.40;;;8.30;99.90;;;;;;5091903;28;20060;-62
2022/04/25 03:13:15;;;;;;;11.77;6.38;;;8.80;99.90;;;;;;5093405;28;20116;-62
2022/04/25 03:15:42;;;;;;;13.85;6.25;;;8.20;99.90;;;;;;5091739;28;20089;-62
2022/04/25 03:18:10;;;;;;;10.75;6.70;;;8.20;99.90;;;;;;5092296;28;20040;-63
2022/04/25 03:20:37;;;;;;;10.88;5.50;;;8.10;99.90;;;;;;5092529;28;20048;-62
2022/04/25 03:23:05;;;;;;;13.95;6.45;;;8.30;99.90;;;;;;5091545;28;20131;-62
2022/04/25 03:25:32;;;;;;;12.63;6.90;;;8.30;99.90;;;;;;5090518;28;20036;-62
2022/04/25 03:27:58;;;;;;;11.40;6.05;;;8.30;99.90;;;;;;5093005;28;20036;-62
2022/04/25 03:30:24;;;;;;;17.13;5.57;;;8.30;99.90;;;;;;5092093;28;20123;-62
2022/04/25 03:32:50;;;;;;;16.35;6.63;;;8.30;99.90;;;;;;5092736;28;20035;-62
2022/04/25 03:35:18;;;;;;;15.82;6.40;;;8.40;99.90;;;;;;5092485;28;20068;-62
2022/04/25 03:37:44;;;;;;;11.50;5.75;;;8.30;99.90;;;;;;5091462;28;20492;-62
2022/04/25 03:40:12;;;;;;;15.15;7.05;;;8.30;99.90;;;;;;5092947;28;20115;-62
2022/04/25 03:42:39;;;;;;;9.93;6.35;;;8.60;99.90;;;;;;5092411;28;20040;-62
2022/04/25 03:45:05;;;;;;;12.60;6.05;;;8.30;99.90;;;;;;5090600;28;20047;-62
2022/04/25 03:47:32;;;;;;;10.88;5.82;;;8.50;99.90;;;;;;5091973;28;20119;-62
2022/04/25 03:49:58;;;;;;;13.73;6.88;;;8.60;99.90;;;;;;5092640;28;20047;-62
2022/04/25 03:52:23;;;;;;;14.55;6.60;;;8.30;99.90;;;;;;5090067;28;20036;-62
2022/04/25 03:57:34;;;;;;;15.30;6.23;;;8.30;99.90;;;;;;5092238;28;20055;-62
2022/04/25 04:00:00;;;;;;;11.85;6.05;;;8.30;99.90;;;;;;5091736;28;20036;-62
2022/04/25 04:02:25;;;;;;;12.68;6.65;;;8.30;99.90;;;;;;5092133;28;20036;-62
2022/04/25 04:04:51;;;;;;;11.48;6.25;;;8.30;99.90;;;;;;5092042;28;20039;-62
2022/04/25 04:07:17;;;;;;;15.48;7.15;;;8.30;99.90;;;;;;5091443;28;20036;-62
2022/04/25 04:09:45;;;;;;;12.75;6.43;;;8.30;99.90;;;;;;5097041;28;20043;-62
2022/04/25 04:12:12;;;;;;;9.15;6.03;;;8.30;99.90;;;;;;5097802;28;20079;-62
2022/04/25 04:14:39;;;;;;;10.30;6.10;;;8.30;99.90;;;;;;5096841;28;20044;-62
2022/04/25 04:17:07;;;;;;;11.18;5.50;;;8.30;99.90;;;;;;5097989;28;20051;-62
2022/04/25 04:19:37;;;;;;;12.15;6.50;;;8.50;99.90;;;;;;5098431;28;20050;-62
2022/04/25 04:22:04;;;;;;;14.65;7.00;;;8.30;99.90;;;;;;5097284;28;20170;-62
2022/04/25 04:24:31;;;;;;;11.75;6.20;;;8.30;99.90;;;;;;5080252;28;20040;-62
2022/04/25 04:27:06;;;;;;;12.30;6.45;;;8.80;99.90;;;;;;5097152;28;20078;-62
2022/04/25 04:29:33;;;;;;;14.40;6.25;;;8.30;99.90;;;;;;5097576;28;20123;-62
2022/04/25 04:32:05;;;;;;;9.80;5.60;;;8.40;99.90;;;;;;5099484;28;20044;-62
2022/04/25 04:34:31;;;;;;;11.15;5.82;;;8.30;99.90;;;;;;5096533;28;20488;-62
2022/04/25 04:36:57;;;;;;;9.85;5.78;;;8.30;99.90;;;;;;5098903;28;20038;-62
2022/04/25 04:39:22;;;;;;;13.77;5.47;;;8.10;99.90;;;;;;5097414;28;20044;-62
2022/04/25 04:41:48;;;;;;;9.95;5.70;;;8.80;99.90;;;;;;5097775;28;20067;-62
2022/04/25 04:44:14;;;;;;;11.85;5.97;;;8.20;99.90;;;;;;5098430;28;20115;-63
2022/04/25 04:46:40;;;;;;;11.88;7.07;;;8.30;99.90;;;;;;5097489;28;20036;-62
2022/04/25 04:49:06;;;;;;;14.23;6.28;;;8.20;99.90;;;;;;5096470;28;20055;-62
2022/04/25 04:51:32;;;;;;;11.55;6.70;;;8.20;99.90;;;;;;5098255;28;20036;-62
2022/04/25 04:54:01;;;;;;;10.25;6.18;;;8.20;99.90;;;;;;5097705;28;20087;-62
2022/04/25 04:56:29;;;;;;;13.25;6.82;;;8.20;99.90;;;;;;5096453;28;20039;-62
2022/04/25 04:58:54;;;;;;;12.90;6.68;;;8.10;99.90;;;;;;5097390;28;20075;-62
2022/04/25 05:01:20;;;;;;;11.93;6.15;;;8.10;99.90;;;;;;5098536;28;20079;-62
2022/04/25 05:03:48;;;;;;;11.68;6.82;;;8.20;99.90;;;;;;5097560;28;20461;-62
2022/04/25 05:06:13;;;;;;;10.20;5.95;;;8.20;99.90;;;;;;5098481;28;20071;-62
2022/04/25 05:08:40;;;;;;;12.48;6.38;;;8.30;99.90;;;;;;5098132;28;20074;-62
2022/04/25 05:11:08;;;;;;;11.13;5.35;;;8.20;99.90;;;;;;5096645;28;20110;-62
2022/04/25 05:13:34;;;;;;;12.85;7.10;;;8.20;99.90;;;;;;5097901;28;20043;-62
2022/04/25 05:15:59;;;;;;;10.90;6.07;;;8.10;99.90;;;;;;5096428;28;20047;-62
2022/04/25 05:18:25;;;;;;;10.02;5.25;;;8.20;99.90;;;;;;5098217;28;20109;-62
2022/04/25 05:20:51;;;;;;;10.32;6.65;;;8.00;99.90;;;;;;5092894;28;20035;-62
2022/04/25 05:23:17;;;;;;;11.88;6.07;;;8.10;99.90;;;;;;5094173;28;20116;-62
2022/04/25 05:25:42;;;;;;;11.63;6.22;;;8.20;99.90;;;;;;5092447;28;20044;-62
2022/04/25 05:28:08;;;;;;;11.77;6.43;;;8.20;99.90;;;;;;5074866;28;20040;-62
2022/04/25 05:30:34;;;;;;;13.32;7.10;;;8.20;99.90;;;;;;5074018;28;20051;-62
2022/04/25 05:33:03;;;;;;;11.15;6.65;;;8.20;99.90;;;;;;5073756;28;20040;-62
2022/04/25 05:35:33;;;;;;;13.52;6.43;;;8.20;99.90;;;;;;5094201;28;20040;-61
2022/04/25 05:38:00;;;;;;;14.23;8.10;;;8.20;99.90;;;;;;5094013;28;20489;-60
2022/04/25 05:40:26;;;;;;;11.93;6.28;;;8.30;99.90;;;;;;5090892;28;20378;-62
2022/04/25 05:42:54;;;;;;;13.43;6.25;;;8.30;99.90;;;;;;5094697;28;20047;-62
2022/04/25 05:45:25;;;;;;;13.43;6.20;;;8.30;99.90;;;;;;5094148;28;20396;-62
2022/04/25 05:47:55;;;;;;;13.38;6.20;;;8.30;99.90;;;;;;5093080;28;20086;-63
2022/04/25 05:53:07;;;;;;;;;;;8.30;99.90;;;;;;5091026;28;20051;-61
2022/04/25 05:55:33;;;;;;;10.43;6.15;;;8.30;99.90;;;;;;5070487;28;19916;-62
2022/04/25 05:58:01;;;;;;;10.77;6.22;;;8.30;99.90;;;;;;5083500;28;20381;-62
2022/04/25 06:00:27;;;;;;;9.98;5.55;;;8.30;99.90;;;;;;5089711;28;20571;-62
2022/04/25 06:02:53;;;;;;;14.02;6.75;;;8.20;99.90;;;;;;5091580;28;20060;-62
2022/04/25 06:05:19;;;;;;;12.50;6.30;;;8.30;99.90;;;;;;5090835;28;20089;-62
2022/04/25 06:07:46;;;;;;;10.82;6.32;;;8.40;99.90;;;;;;5090389;28;20123;-62
2022/04/25 06:10:15;;;;;;;12.40;7.18;;;8.40;99.90;;;;;;5091846;28;20083;-62
2022/04/25 06:12:52;;;;;;;10.00;6.03;;;8.40;99.90;;;;;;5088216;28;20047;-62
2022/04/25 06:15:21;;;;;;;13.05;7.13;;;8.40;99.90;;;;;;5091818;28;20501;-62
2022/04/25 06:17:47;;;;;;;13.65;5.70;;;8.50;99.90;;;;;;5090249;28;20438;-62
2022/04/25 06:20:13;;;;;;;11.32;6.28;;;8.40;99.90;;;;;;5089412;28;20119;-62
2022/04/25 06:22:39;;;;;;;12.32;6.03;;;8.40;99.90;;;;;;5090384;28;20218;-62
2022/04/25 06:25:05;;;;;;;9.60;5.22;;;8.50;99.90;;;;;;5091446;28;20036;-62
2022/04/25 06:27:32;;;;;;;10.60;6.22;;;8.50;99.90;;;;;;5090171;28;20071;-62
2022/04/25 06:29:58;;;;;;;12.68;6.15;;;8.50;99.90;;;;;;5088842;28;20229;-62
2022/04/25 06:32:24;;;;;;;10.93;6.40;;;8.50;99.90;;;;;;5089577;28;20221;-62
2022/04/25 06:34:50;;;;;;;14.52;7.70;;;8.50;99.90;;;;;;5089809;28;20052;-62
2022/04/25 06:37:16;;;;;;;10.43;7.95;;;8.50;99.90;;;;;;5091327;28;20039;-62
2022/04/25 06:39:42;;;;;;;13.38;5.97;;;8.50;99.90;;;;;;5089796;28;20469;-61
2022/04/25 06:42:09;;;;;;;11.52;6.85;;;8.40;99.90;;;;;;5088975;28;20036;-62
2022/04/25 06:44:35;;;;;;;9.15;5.10;;;8.50;99.90;;;;;;5090581;28;20051;-61
2022/04/25 06:47:01;;;;;;;11.23;5.43;;;8.50;99.90;;;;;;5089369;28;20395;-62
2022/04/25 06:49:27;;;;;;;10.50;5.95;;;8.60;99.90;;;;;;5088518;28;20036;-62
2022/04/25 06:51:58;;;;;;;13.18;5.57;;;;;;;;;;5083842;28;20042;-62
2022/04/25 06:54:24;;;;;;;9.80;5.30;;;;;;;;;;5069632;28;20044;-61
2022/04/25 06:56:51;;;;;;;8.65;4.85;;;;;;;;;;5082033;28;20086;-62
2022/04/25 06:59:18;;;;;;;10.60;5.55;;;;;;;;;;5090843;28;20094;-62
2022/04/25 07:01:46;;;;;;;10.20;5.43;;;;;;;;;;5090051;28;20825;-62
2022/04/25 07:04:12;;;;;;;13.30;5.32;;;;;;;;;;5091066;28;20502;-62
2022/04/25 07:06:38;;;;;;;11.40;5.35;;;8.90;99.90;;;;;;5090387;28;20469;-62
2022/04/25 07:09:04;;;;;;;8.05;3.90;;;9.20;99.90;;;;;;5089936;28;20048;-62
2022/04/25 07:11:30;;;;;;;9.02;4.13;;;9.00;99.90;;;;;;5088169;28;20495;-62
2022/04/25 07:13:55;;;;;;;11.07;5.13;;;9.00;99.90;;;;;;5090077;28;20028;-62
2022/04/25 07:16:24;;;;;;;11.07;4.88;;;8.90;99.90;;;;;;5088259;28;20085;-62
2022/04/25 07:18:50;;;;;;;10.48;4.18;;;9.00;99.90;;;;;;5090186;28;20044;-62
2022/04/25 07:29:37;;;;;;;10.07;4.85;;;;;;;;;;5088522;28;20133;-61
2022/04/25 07:32:04;;;;;;;7.47;4.47;;;;;;;;;;5089644;28;20547;-62
2022/04/25 07:34:30;;;;;;;14.63;7.93;;;9.20;99.90;;;;;;5088678;28;20051;-62
2022/04/25 07:36:56;;;;;;;16.80;10.90;;;9.20;99.90;;;;;;5088092;28;20040;-62
2022/04/25 07:39:22;;;;;;;16.58;10.35;;;;;;;;;;5089119;28;20547;-62
2022/04/25 07:41:49;;;;;;;9.55;4.82;;;;;;;;;;5087981;28;20478;-62
2022/04/25 07:44:15;;;;;;;9.23;5.00;;;9.40;99.90;;;;;;5103284;28;20503;-62
2022/04/25 07:46:41;;;;;;;11.18;5.05;;;9.40;99.90;;;;;;5088725;28;20085;-62
2022/04/25 07:49:10;;;;;;;11.68;5.18;;;9.50;99.90;;;;;;5104513;28;20514;-62
2022/04/25 07:51:40;;;;;;;10.48;5.30;;;9.40;99.90;;;;;;5085895;28;20821;-62
2022/04/25 07:54:06;;;;;;;7.82;5.07;;;9.50;99.90;;;;;;5086492;28;20035;-62
2022/04/25 07:56:33;;;;;;;9.45;5.88;;;9.60;99.90;;;;;;5087404;28;20409;-62
2022/04/25 07:59:00;;;;;;;9.77;5.22;;;9.60;99.90;;;;;;5089288;28;20043;-62
2022/04/25 08:01:29;;;;;;;9.73;5.32;;;9.70;99.90;;;;;;5089976;28;20063;-62
2022/04/25 08:03:56;;;;;;;9.43;4.88;;;9.80;99.90;;;;;;5086927;28;20044;-62
2022/04/25 08:33:32;;;;;;;11.68;4.57;;;10.80;99.90;;;;;;5080162;28;20060;-62
2022/04/25 08:35:59;;;;;;;10.88;5.90;;;10.90;99.90;;;;;;5088792;28;20047;-62
2022/04/25 08:38:25;;;;;;;7.38;4.13;;;10.90;99.90;;;;;;5088091;28;20048;-62
2022/04/25 08:40:51;;;;;;;10.75;5.07;;;10.90;99.90;;;;;;5087117;28;20040;-61
2022/04/25 08:43:18;;;;;;;10.45;4.80;;;11.00;99.90;;;;;;5088391;28;20373;-62
2022/04/25 08:45:45;;;;;;;11.13;5.15;;;11.00;99.90;;;;;;5089110;28;20070;-62
2022/04/25 08:48:12;;;;;;;9.63;5.00;;;11.10;99.90;;;;;;5090207;28;20036;-62
2022/04/25 08:50:41;;;;;;;9.80;4.63;;;11.10;99.90;;;;;;5091378;28;20039;-62
2022/04/25 08:53:07;;;;;;;9.23;4.97;;;11.40;99.90;;;;;;5092153;28;20392;-60
2022/04/25 08:55:33;;;;;;;10.13;4.68;;;11.60;99.90;;;;;;5090050;28;20036;-61
2022/04/25 08:57:59;;;;;;;10.27;4.07;;;11.80;99.90;;;;;;5095823;28;20043;-62
2022/04/25 09:00:25;;;;;;;8.95;3.90;;;11.80;99.90;;;;;;5095197;28;20118;-63
2022/04/25 09:02:52;;;;;;;7.63;4.90;;;12.20;99.90;;;;;;5092621;28;20128;-62
2022/04/25 09:05:18;;;;;;;8.07;4.55;;;12.10;99.90;;;;;;5094142;28;20456;-60
2022/04/25 09:07:44;;;;;;;7.93;3.78;;;12.00;99.90;;;;;;5094105;28;20044;-61
2022/04/25 09:10:14;;;;;;;14.23;4.88;;;11.60;99.90;;;;;;5076773;28;20119;-61
2022/04/25 09:12:42;;;;;;;8.57;4.38;;;11.70;99.90;;;;;;5094159;28;20071;-62
2022/04/25 09:15:09;;;;;;;48.75;22.60;;;11.80;99.90;;;;;;5094327;28;20504;-58
2022/04/25 09:17:38;;;;;;;49.80;21.63;;;11.60;99.90;;;;;;5092311;28;20131;-60
2022/04/25 09:20:06;;;;;;;41.38;18.88;;;11.80;99.90;;;;;;5095458;28;20114;-63
2022/04/25 09:22:39;;;;;;;39.33;17.23;;;11.60;99.90;;;;;;5098332;28;20391;-62
2022/04/25 09:25:13;;;;;;;84.90;33.80;;;11.60;99.90;;;;;;5114327;28;20093;-62
2022/04/25 09:27:39;;;;;;;14.45;10.95;;;11.70;99.90;;;;;;5100118;28;20039;-62
2022/04/25 09:30:20;;;;;;;6.85;3.72;;;12.10;99.90;;;;;;5093074;28;20039;-62
2022/04/25 09:32:47;;;;;;;8.77;3.67;;;11.70;99.90;;;;;;5093332;28;20048;-60
2022/04/25 09:35:33;;;;;;;7.70;3.85;;;11.60;99.90;;;;;;5093278;28;20480;-59
2022/04/25 09:38:04;;;;;;;9.98;4.90;;;11.60;99.90;;;;;;5075992;28;20055;-60
2022/04/25 09:40:32;;;;;;;6.68;3.38;;;12.10;99.90;;;;;;5094508;28;20047;-60
2022/04/25 09:43:13;;;;;;;7.90;4.10;;;12.00;99.90;;;;;;5093245;28;20036;-60
2022/04/25 09:45:43;;;;;;;8.15;3.67;;;11.80;99.90;;;;;;5093400;28;20072;-60
2022/04/25 09:48:14;;;;;;;9.10;3.80;;;11.90;99.90;;;;;;5078988;28;20051;-60
2022/04/25 09:50:40;;;;;;;7.57;3.25;;;11.90;99.90;;;;;;5092444;28;20370;-59
2022/04/25 09:53:08;;;;;;;8.02;3.63;;;12.10;99.90;;;;;;5093644;28;20050;-59
2022/04/25 09:55:36;;;;;;;8.30;3.70;;;11.70;99.90;;;;;;5092901;28;20050;-60
2022/04/25 09:58:17;;;;;;;7.25;3.22;;;11.70;99.90;;;;;;5075542;28;20065;-60
2022/04/25 10:00:43;;;;;;;9.10;3.58;;;11.70;99.90;;;;;;5094384;28;20492;-60
2022/04/25 10:03:10;;;;;;;5.65;3.05;;;11.50;99.90;;;;;;5094397;28;20028;-59
2022/04/25 10:05:39;;;;;;;8.32;3.13;;;11.50;99.90;;;;;;5091789;28;20092;-60
2022/04/25 10:08:07;;;;;;;8.23;3.20;;;11.50;99.90;;;;;;5093735;28;20097;-59
2022/04/25 10:10:34;;;;;;;7.55;3.47;;;11.30;99.90;;;;;;5091248;28;20048;-59
2022/04/25 10:13:01;;;;;;;10.20;3.58;;;11.40;99.90;;;;;;5092110;28;20047;-61
2022/04/25 10:15:26;;;;;;;7.20;3.20;;;11.30;99.90;;;;;;5092812;28;20082;-61
2022/04/25 10:17:54;;;;;;;7.50;3.45;;;11.20;99.90;;;;;;5092982;28;20563;-61
2022/04/25 10:20:20;;;;;;;11.27;3.58;;;11.30;99.90;;;;;;5092248;28;20122;-61
2022/04/25 10:22:46;;;;;;;8.93;3.47;;;11.30;99.90;;;;;;5091620;28;20531;-61
2022/04/25 10:25:12;;;;;;;12.65;3.97;;;11.20;99.90;;;;;;5093777;28;20040;-61
2022/04/25 10:27:42;;;;;;;9.40;3.30;;;11.80;99.90;;;;;;5091680;28;20047;-61
2022/04/25 10:30:12;;;;;;;8.30;4.38;;;11.40;99.90;;;;;;5093935;28;20036;-62
2022/04/25 10:32:38;;;;;;;11.18;3.58;;;11.40;99.90;;;;;;5091289;28;20048;-61
2022/04/25 10:35:11;;;;;;;7.32;3.17;;;11.30;99.90;;;;;;5092904;28;20038;-61
2022/04/25 10:37:40;;;;;;;7.15;3.58;;;11.50;99.90;;;;;;5092448;28;20113;-61
2022/04/25 10:40:12;;;;;;;8.27;3.28;;;11.70;99.90;;;;;;5091895;28;20043;-61
2022/04/25 10:45:59;;;;;;;8.52;3.72;;;12.20;99.90;;;;;;5092982;28;20138;-61
2022/04/25 10:48:26;;;;;;;8.75;4.20;;;12.40;99.90;;;;;;5092920;28;20446;-62
2022/04/25 10:51:16;;;;;;;7.88;3.47;;;12.30;99.90;;;;;;5093064;28;20040;-61
2022/04/25 10:54:01;;;;;;;7.63;2.95;;;;;;;;;;5090427;28;20048;-61
2022/04/25 10:56:31;;;;;;;8.88;3.10;;;12.30;99.90;;;;;;5093391;28;20064;-61
2022/04/25 10:59:26;;;;;;;9.50;3.00;;;12.50;99.90;;;;;;5093535;28;20044;-61
2022/04/25 11:01:53;;;;;;;8.80;3.30;;;;;;;;;;5091159;28;20374;-61
2022/04/25 11:04:19;;;;;;;8.77;3.45;;;;;;;;;;5093138;28;20126;-61
2022/04/25 11:06:46;;;;;;;7.40;2.95;;;12.50;99.90;;;;;;5092930;28;20051;-61
2022/04/25 11:09:39;;;;;;;9.10;3.30;;;12.50;99.90;;;;;;5092002;28;20036;-61
2022/04/25 11:12:05;;;;;;;8.27;3.45;;;12.50;99.90;;;;;;5092150;28;20040;-61
2022/04/25 11:14:31;;;;;;;6.57;2.70;;;12.30;99.90;;;;;;5092776;28;20373;-61
2022/04/25 11:17:08;;;;;;;8.35;3.50;;;12.30;99.90;;;;;;5091306;28;20073;-61
2022/04/25 11:19:45;;;;;;;9.57;3.40;;;12.30;99.90;;;;;;5091794;28;20036;-61
2022/04/25 11:22:31;;;;;;;6.93;3.40;;;12.40;99.90;;;;;;5092177;28;20089;-61
2022/04/25 11:25:17;;;;;;;6.93;3.78;;;12.50;99.90;;;;;;5093103;28;20073;-61
2022/04/25 11:28:01;;;;;;;8.40;4.43;;;12.60;99.90;;;;;;5091488;28;20040;-61
2022/04/25 11:30:27;;;;;;;12.23;4.10;;;13.00;99.90;;;;;;5090720;28;20047;-60
2022/04/25 11:33:00;;;;;;;10.75;4.20;;;12.40;99.90;;;;;;5092400;28;20055;-60
2022/04/25 11:35:26;;;;;;;11.10;4.50;;;12.50;99.90;;;;;;5092693;28;20109;-60
2022/04/25 11:37:56;;;;;;;12.40;5.13;;;12.80;99.90;;;;;;5090950;28;20048;-60
2022/04/25 11:40:23;;;;;;;6.97;3.63;;;12.90;99.90;;;;;;5091248;28;20048;-61
2022/04/25 11:42:49;;;;;;;10.75;3.80;;;;;;;;;;5092009;28;20089;-61
2022/04/25 11:45:15;;;;;;;10.68;3.97;;;;;;;;;;5091968;28;20046;-61
2022/04/25 11:47:41;;;;;;;8.88;4.03;;;;;;;;;;5091067;28;20047;-61
2022/04/25 11:50:11;;;;;;;10.35;3.40;;;13.20;99.90;;;;;;5092056;28;20047;-61
2022/04/25 11:52:47;;;;;;;9.10;4.32;;;12.90;99.90;;;;;;5092461;28;20047;-61
2022/04/25 11:55:14;;;;;;;9.63;4.28;;;;;;;;;;5092231;28;20485;-60
2022/04/25 11:57:42;;;;;;;11.52;5.25;;;;;;;;;;5090361;28;20050;-61
2022/04/25 12:00:19;;;;;;;8.02;3.60;;;12.50;99.90;;;;;;5090818;28;20044;-62
2022/04/25 12:02:46;;;;;;;9.55;4.57;;;;;;;;;;5092642;28;20052;-61
2022/04/25 12:05:12;;;;;;;8.48;3.58;;;;;;;;;;5078565;28;20050;-61
2022/04/25 12:15:33;;;;;;;13.40;5.18;;;12.80;99.90;;;;;;5070493;28;20504;-61
2022/04/25 12:15:56;;;;;;;21.23;9.65;;;13.50;99.90;;;;;;5108231;28;20048;-61
2022/04/25 12:18:23;;;;;;;9.27;3.90;;;14.00;99.90;;;;;;5090816;28;20097;-61
2022/04/25 12:21:08;;;;;;;12.43;4.22;;;14.70;99.90;;;;;;5090427;28;20050;-61
2022/04/25 12:23:39;;;;;;;8.52;3.60;;;13.80;99.90;;;;;;5089218;28;20121;-61
2022/04/25 12:26:08;;;;;;;9.20;3.10;;;13.40;99.90;;;;;;5077137;28;20052;-61
2022/04/25 12:28:38;;;;;;;9.45;3.60;;;13.40;99.90;;;;;;5088751;28;20044;-62
2022/04/25 12:31:04;;;;;;;10.35;3.92;;;;;;;;;;5093202;28;20048;-63
2022/04/25 12:33:42;;;;;;;8.43;3.08;;;13.50;99.90;;;;;;5091303;28;20083;-63
2022/04/25 12:36:16;;;;;;;9.65;3.78;;;13.60;99.90;;;;;;5091711;28;20476;-63
2022/04/25 12:38:51;;;;;;;8.32;4.00;;;13.40;99.90;;;;;;5092207;28;20412;-63
2022/04/25 12:41:32;;;;;;;6.60;3.17;;;13.70;99.90;;;;;;5090223;28;20047;-63
2022/04/25 12:44:01;;;;;;;7.25;2.97;;;13.20;99.90;;;;;;5091553;28;20059;-63
2022/04/25 12:46:35;;;;;;;17.33;3.67;;;13.30;99.90;;;;;;5091254;28;20048;-63
2022/04/25 12:49:12;;;;;;;8.52;3.53;;;13.20;99.90;;;;;;5089289;28;20484;-63
2022/04/25 12:51:58;;;;;;;9.48;3.55;;;13.30;99.90;;;;;;5091268;28;20075;-62
2022/04/25 12:54:25;;;;;;;9.60;4.18;;;13.40;99.90;;;;;;5090668;28;20440;-63
2022/04/25 12:56:55;;;;;;;6.78;2.90;;;13.80;99.90;;;;;;5088090;28;20440;-63
2022/04/25 12:59:29;;;;;;;8.45;2.80;;;14.00;99.90;;;;;;5091694;28;20048;-63
2022/04/25 13:02:17;;;;;;;8.57;2.95;;;13.50;99.90;;;;;;5107144;28;20101;-63
2022/04/25 13:04:57;;;;;;;8.25;2.88;;;13.50;99.90;;;;;;5092345;28;20051;-63
2022/04/25 13:07:31;;;;;;;7.32;2.80;;;13.40;99.90;;;;;;5086352;28;20040;-62
2022/04/25 13:10:01;;;;;;;6.85;2.80;;;13.30;99.90;;;;;;5090864;28;20115;-62
2022/04/25 13:12:32;;;;;;;8.32;2.92;;;13.30;99.90;;;;;;5091536;28;20040;-62
2022/04/25 13:14:58;;;;;;;8.15;3.20;;;13.00;99.90;;;;;;5091741;28;20114;-62
2022/04/25 13:17:24;;;;;;;14.82;3.92;;;13.50;99.90;;;;;;5090890;28;20054;-62
2022/04/25 13:19:50;;;;;;;7.93;3.83;;;;;;;;;;5090404;28;20035;-62
2022/04/25 13:22:16;;;;;;;10.75;3.83;;;;;;;;;;5091191;28;20081;-62
2022/04/25 13:24:43;;;;;;;8.77;3.30;;;;;;;;;;5090295;28;20598;-62
2022/04/25 13:27:09;;;;;;;9.80;3.25;;;13.40;99.90;;;;;;5091005;28;20040;-63
2022/04/25 13:29:35;;;;;;;9.20;3.38;;;;;;;;;;5090661;28;20104;-62
2022/04/25 13:32:02;;;;;;;7.93;3.28;;;12.70;99.90;;;;;;5090719;28;20062;-63
2022/04/25 13:34:27;;;;;;;6.78;2.95;;;13.10;99.90;;;;;;5091393;28;20073;-63
2022/04/25 13:36:55;;;;;;;5.68;2.88;;;13.70;99.90;;;;;;5089524;28;20040;-63
2022/04/25 13:39:21;;;;;;;5.72;3.17;;;;;;;;;;5090868;28;20447;-62
2022/04/25 13:41:47;;;;;;;6.20;2.95;;;;;;;;;;5088819;28;20480;-62
2022/04/25 13:44:13;;;;;;;8.32;3.13;;;13.90;99.90;;;;;;5072160;28;20489;-63
2022/04/25 13:46:39;;;;;;;8.07;3.20;;;14.00;99.90;;;;;;5090420;28;20054;-63
2022/04/25 13:49:04;;;;;;;7.57;3.17;;;14.10;99.90;;;;;;5088498;28;20139;-63
2022/04/25 13:51:30;;;;;;;8.40;3.13;;;14.20;99.90;;;;;;5077165;28;20040;-63
2022/04/25 13:53:55;;;;;;;6.32;2.75;;;13.90;99.90;;;;;;5084529;28;20496;-63